JST715 YSCB-YMML

Flight info

Callsign JST715
Flight time 0h 52m
Altitude 34000
Route TANTA Q29 BOOIN
Aircraft A321/M-SDE3FGHIRWY/LB1

Departure

Time 2026-05-07 00:17
Airport Canberra Airport (YSCB)

Arrival

Time 2026-05-07 01:10
Airport Melbourne Airport (YMML)
Time Latitude Longitude Altitude Speed Heading
2026-05-07 00:02 -35.30679 149.19097 1880 ft 0 kts 231°
2026-05-07 00:05 -35.30666 149.19118 1880 ft 3 kts 234°
2026-05-07 00:05 -35.30652 149.19141 1878 ft 2 kts 231°
2026-05-07 00:06 -35.30640 149.19156 1876 ft 3 kts 175°
2026-05-07 00:06 -35.30624 149.19144 1880 ft 3 kts 129°
2026-05-07 00:06 -35.30609 149.19122 1876 ft 3 kts 129°
2026-05-07 00:06 -35.30606 149.19118 1876 ft 0 kts 130°
2026-05-07 00:10 -35.30607 149.19119 1876 ft 1 kts 130°
2026-05-07 00:10 -35.30631 149.19154 1875 ft 9 kts 130°
2026-05-07 00:10 -35.30642 149.19200 1880 ft 5 kts 82°
2026-05-07 00:10 -35.30603 149.19235 1878 ft 10 kts 15°
2026-05-07 00:11 -35.30504 149.19240 1878 ft 18 kts 360°
2026-05-07 00:11 -35.30370 149.19235 1880 ft 18 kts 357°
2026-05-07 00:11 -35.30257 149.19235 1880 ft 16 kts
2026-05-07 00:11 -35.30153 149.19236 1880 ft 15 kts
2026-05-07 00:12 -35.30049 149.19243 1880 ft 15 kts
2026-05-07 00:12 -35.29936 149.19244 1880 ft 17 kts 359°
2026-05-07 00:12 -35.29812 149.19242 1880 ft 19 kts
2026-05-07 00:12 -35.29678 149.19243 1879 ft 20 kts
2026-05-07 00:13 -35.29539 149.19243 1878 ft 20 kts 360°
2026-05-07 00:13 -35.29419 149.19243 1879 ft 16 kts 360°
2026-05-07 00:13 -35.29309 149.19242 1878 ft 16 kts 360°
2026-05-07 00:13 -35.29191 149.19242 1879 ft 18 kts 360°
2026-05-07 00:14 -35.29086 149.19271 1876 ft 11 kts 54°
2026-05-07 00:14 -35.29076 149.19297 1879 ft 0 kts 72°
2026-05-07 00:14 -35.29076 149.19299 1879 ft 0 kts 72°
2026-05-07 00:15 -35.29075 149.19303 1879 ft 3 kts 75°
2026-05-07 00:16 -35.29069 149.19376 1879 ft 11 kts 87°
2026-05-07 00:16 -35.29085 149.19440 1877 ft 6 kts 154°
2026-05-07 00:16 -35.29095 149.19441 1879 ft 0 kts 175°
2026-05-07 00:17 -35.29262 149.19442 1880 ft 61 kts 180°
2026-05-07 00:17 -35.29929 149.19442 1880 ft 128 kts 180°
2026-05-07 00:17 -35.30960 149.19462 2181 ft 152 kts 183°
2026-05-07 00:17 -35.32002 149.19541 2954 ft 149 kts 191°
2026-05-07 00:18 -35.33026 149.19451 3737 ft 149 kts 197°
2026-05-07 00:18 -35.34104 149.19178 4236 ft 169 kts 199°
2026-05-07 00:18 -35.35330 149.18833 4685 ft 192 kts 199°
2026-05-07 00:18 -35.36698 149.18456 5115 ft 217 kts 198°
2026-05-07 00:19 -35.38240 149.18050 5869 ft 229 kts 196°
2026-05-07 00:19 -35.39839 149.17646 6721 ft 243 kts 194°
2026-05-07 00:19 -35.41518 149.17234 7811 ft 248 kts 195°
2026-05-07 00:19 -35.43227 149.16822 8968 ft 252 kts 194°
2026-05-07 00:20 -35.44961 149.16410 10076 ft 256 kts 194°
2026-05-07 00:20 -35.46773 149.15977 10672 ft 277 kts 194°
2026-05-07 00:20 -35.48744 149.15504 11127 ft 298 kts 194°
2026-05-07 00:20 -35.50789 149.14903 11889 ft 305 kts 202°
2026-05-07 00:21 -35.52694 149.13767 12727 ft 307 kts 214°
2026-05-07 00:21 -35.54328 149.12077 13484 ft 309 kts 228°
2026-05-07 00:21 -35.55631 149.09954 14210 ft 313 kts 234°
2026-05-07 00:21 -35.56887 149.07752 14914 ft 317 kts 234°
2026-05-07 00:22 -35.58166 149.05526 15591 ft 321 kts 234°
2026-05-07 00:22 -35.59462 149.03274 16297 ft 323 kts 233°
2026-05-07 00:22 -35.60763 149.01013 17132 ft 324 kts 234°
2026-05-07 00:22 -35.62070 148.98738 17873 ft 327 kts 234°
2026-05-07 00:23 -35.63388 148.96443 18520 ft 331 kts 234°
2026-05-07 00:23 -35.64725 148.94120 19099 ft 335 kts 234°
2026-05-07 00:23 -35.66080 148.91768 19666 ft 339 kts 235°
2026-05-07 00:23 -35.67451 148.89382 20199 ft 344 kts 236°
2026-05-07 00:24 -35.68840 148.86960 20750 ft 349 kts 236°
2026-05-07 00:24 -35.70242 148.84504 21286 ft 353 kts 237°
2026-05-07 00:24 -35.71661 148.82013 21833 ft 358 kts 236°
2026-05-07 00:24 -35.73103 148.79481 22328 ft 364 kts 237°
2026-05-07 00:25 -35.74568 148.76911 22837 ft 369 kts 237°
2026-05-07 00:25 -35.76048 148.74316 23344 ft 373 kts 236°
2026-05-07 00:25 -35.77543 148.71694 23865 ft 375 kts 237°
2026-05-07 00:25 -35.79052 148.69054 24306 ft 378 kts 237°
2026-05-07 00:26 -35.80552 148.66430 24711 ft 381 kts 237°
2026-05-07 00:26 -35.82081 148.63751 25132 ft 383 kts 237°
2026-05-07 00:26 -35.83616 148.61049 25537 ft 386 kts 237°
2026-05-07 00:26 -35.85158 148.58325 25978 ft 389 kts 237°
2026-05-07 00:27 -35.86711 148.55578 26323 ft 392 kts 236°
2026-05-07 00:27 -35.88277 148.52813 26692 ft 396 kts 236°
2026-05-07 00:27 -35.89859 148.50021 27066 ft 398 kts 236°
2026-05-07 00:27 -35.91448 148.47208 27431 ft 401 kts 236°
2026-05-07 00:28 -35.93042 148.44382 27883 ft 401 kts 236°
2026-05-07 00:28 -35.94637 148.41551 28299 ft 403 kts 236°
2026-05-07 00:28 -35.96236 148.38700 28677 ft 405 kts 236°
2026-05-07 00:28 -35.97842 148.35830 29057 ft 407 kts 236°
2026-05-07 00:29 -35.99459 148.32944 29417 ft 410 kts 236°
2026-05-07 00:29 -36.01092 148.30035 29710 ft 414 kts 236°
2026-05-07 00:30 -36.06058 148.21186 30578 ft 422 kts 236°
2026-05-07 00:30 -36.07728 148.18196 30844 ft 423 kts 235°
2026-05-07 00:30 -36.09401 148.15194 31157 ft 425 kts 235°
2026-05-07 00:30 -36.11079 148.12180 31444 ft 426 kts 236°
2026-05-07 00:31 -36.12764 148.09153 31725 ft 428 kts 236°
2026-05-07 00:31 -36.14457 148.06127 32107 ft 427 kts 236°
2026-05-07 00:31 -36.16148 148.03107 32493 ft 426 kts 236°
2026-05-07 00:31 -36.17835 148.00092 32850 ft 425 kts 236°
2026-05-07 00:32 -36.19515 147.97087 33224 ft 425 kts 236°
2026-05-07 00:32 -36.21197 147.94079 33601 ft 424 kts 236°
2026-05-07 00:32 -36.22872 147.91074 33947 ft 423 kts 236°
2026-05-07 00:32 -36.24535 147.88079 34153 ft 421 kts 236°
2026-05-07 00:33 -36.26172 147.85130 34183 ft 410 kts 236°
2026-05-07 00:33 -36.27781 147.82231 34190 ft 407 kts 236°
2026-05-07 00:33 -36.30966 147.76498 34190 ft 406 kts 236°
2026-05-07 00:34 -36.34155 147.70737 34180 ft 405 kts 236°
2026-05-07 00:34 -36.37342 147.64965 34169 ft 405 kts 236°
2026-05-07 00:35 -36.40503 147.59228 34209 ft 401 kts 235°
2026-05-07 00:35 -36.43639 147.53499 34201 ft 401 kts 235°
2026-05-07 00:36 -36.46787 147.47763 34204 ft 402 kts 235°
2026-05-07 00:36 -36.49945 147.42020 34196 ft 403 kts 235°
2026-05-07 00:37 -36.53101 147.36273 34183 ft 403 kts 234°
2026-05-07 00:37 -36.56244 147.30518 34218 ft 402 kts 234°
2026-05-07 00:38 -36.59376 147.24771 34209 ft 401 kts 234°
2026-05-07 00:38 -36.61969 147.20002 34206 ft 400 kts 234°
2026-05-07 00:39 -36.65089 147.14260 34211 ft 400 kts 234°
2026-05-07 00:39 -36.68202 147.08520 34213 ft 399 kts 233°
2026-05-07 00:40 -36.71307 147.02793 34226 ft 398 kts 233°
2026-05-07 00:40 -36.74395 146.97090 34225 ft 396 kts 233°
2026-05-07 00:41 -36.77475 146.91394 34229 ft 396 kts 233°
2026-05-07 00:41 -36.80544 146.85698 34236 ft 395 kts 233°
2026-05-07 00:42 -36.83602 146.79998 34211 ft 394 kts 233°
2026-05-07 00:42 -36.86642 146.74321 34221 ft 392 kts 232°
2026-05-07 00:43 -36.89680 146.68664 34219 ft 395 kts 232°
2026-05-07 00:43 -36.92782 146.62885 34209 ft 403 kts 232°
2026-05-07 00:44 -36.95899 146.57060 34214 ft 407 kts 232°
2026-05-07 00:44 -36.99055 146.51138 33693 ft 404 kts 232°
2026-05-07 00:45 -37.00577 146.48271 32541 ft 397 kts 230°
2026-05-07 00:45 -37.02106 146.45385 31519 ft 387 kts 228°
2026-05-07 00:45 -37.03574 146.42612 30554 ft 377 kts 227°
2026-05-07 00:45 -37.04997 146.39921 29491 ft 367 kts 226°
2026-05-07 00:46 -37.06385 146.37300 28988 ft 362 kts 225°
2026-05-07 00:46 -37.07759 146.34702 28568 ft 354 kts 224°
2026-05-07 00:46 -37.09107 146.32158 28154 ft 347 kts 224°
2026-05-07 00:46 -37.10428 146.29664 27742 ft 339 kts 224°
2026-05-07 00:47 -37.11718 146.27229 27385 ft 333 kts 224°
2026-05-07 00:47 -37.12988 146.24831 27010 ft 327 kts 223°
2026-05-07 00:47 -37.14236 146.22473 26645 ft 322 kts 223°
2026-05-07 00:47 -37.15470 146.20149 26287 ft 318 kts 223°
2026-05-07 00:48 -37.16687 146.17855 25921 ft 314 kts 223°
2026-05-07 00:48 -37.17886 146.15585 25554 ft 310 kts 223°
2026-05-07 00:48 -37.19069 146.13341 25196 ft 307 kts 222°
2026-05-07 00:48 -37.20233 146.11128 24823 ft 302 kts 222°
2026-05-07 00:49 -37.21385 146.08937 24457 ft 299 kts 222°
2026-05-07 00:49 -37.22523 146.06775 24095 ft 295 kts 222°
2026-05-07 00:49 -37.23651 146.04631 23657 ft 293 kts 222°
2026-05-07 00:49 -37.24758 146.02520 23290 ft 286 kts 223°
2026-05-07 00:50 -37.25841 146.00449 22936 ft 281 kts 223°
2026-05-07 00:50 -37.26906 145.98415 22576 ft 276 kts 223°
2026-05-07 00:50 -37.27949 145.96423 22221 ft 271 kts 223°
2026-05-07 00:50 -37.28976 145.94468 21866 ft 267 kts 223°
2026-05-07 00:51 -37.29992 145.92536 21521 ft 263 kts 223°
2026-05-07 00:51 -37.30994 145.90629 21212 ft 260 kts 223°
2026-05-07 00:51 -37.31991 145.88745 20851 ft 257 kts 222°
2026-05-07 00:51 -37.32974 145.86884 20515 ft 255 kts 223°
2026-05-07 00:52 -37.33950 145.85033 20179 ft 254 kts 223°
2026-05-07 00:52 -37.34915 145.83196 19843 ft 251 kts 223°
2026-05-07 00:52 -37.35872 145.81367 19511 ft 250 kts 224°
2026-05-07 00:52 -37.36824 145.79552 19185 ft 247 kts 223°
2026-05-07 00:53 -37.37768 145.77749 18798 ft 246 kts 223°
2026-05-07 00:53 -37.38700 145.75964 18529 ft 242 kts 223°
2026-05-07 00:53 -37.39622 145.74201 18189 ft 241 kts 223°
2026-05-07 00:53 -37.40532 145.72465 17866 ft 241 kts 224°
2026-05-07 00:54 -37.41467 145.70681 17544 ft 241 kts 224°
2026-05-07 00:54 -37.42376 145.68946 17228 ft 241 kts 225°
2026-05-07 00:54 -37.43303 145.67179 16916 ft 243 kts 226°
2026-05-07 00:54 -37.44217 145.65387 16577 ft 246 kts 231°
2026-05-07 00:55 -37.44856 145.63336 16257 ft 259 kts 245°
2026-05-07 00:55 -37.45056 145.61023 15910 ft 273 kts 258°
2026-05-07 00:55 -37.45022 145.58633 15548 ft 274 kts 259°
2026-05-07 00:55 -37.44989 145.56243 15186 ft 273 kts 260°
2026-05-07 00:56 -37.44957 145.53862 14829 ft 271 kts 261°
2026-05-07 00:56 -37.44930 145.51497 14446 ft 269 kts 261°
2026-05-07 00:56 -37.44904 145.49144 14116 ft 268 kts 262°
2026-05-07 00:56 -37.44880 145.46809 13739 ft 267 kts 262°
2026-05-07 00:57 -37.44856 145.44487 13386 ft 264 kts 262°
2026-05-07 00:57 -37.44829 145.42184 13046 ft 262 kts 262°
2026-05-07 00:57 -37.44802 145.39898 12722 ft 260 kts 262°
2026-05-07 00:57 -37.44774 145.37625 12385 ft 259 kts 263°
2026-05-07 00:58 -37.44746 145.35364 12060 ft 258 kts 263°
2026-05-07 00:58 -37.44717 145.33115 11730 ft 256 kts 263°
2026-05-07 00:58 -37.44688 145.30885 11396 ft 254 kts 263°
2026-05-07 00:58 -37.44658 145.28678 11084 ft 252 kts 263°
2026-05-07 00:59 -37.44602 145.24287 10315 ft 254 kts 263°
2026-05-07 00:59 -37.44576 145.22054 9886 ft 256 kts 263°
2026-05-07 00:59 -37.44546 145.19820 9534 ft 254 kts 263°
2026-05-07 01:00 -37.44515 145.17607 9201 ft 253 kts 263°
2026-05-07 01:00 -37.44486 145.15391 8855 ft 254 kts 263°
2026-05-07 01:00 -37.44458 145.13143 8364 ft 260 kts 264°
2026-05-07 01:00 -37.44428 145.10857 7916 ft 262 kts 264°
2026-05-07 01:01 -37.44391 145.08603 7564 ft 261 kts 264°
2026-05-07 01:01 -37.44351 145.06285 7243 ft 258 kts 264°
2026-05-07 01:01 -37.44312 145.04105 7114 ft 247 kts 264°
2026-05-07 01:01 -37.44275 145.01957 6980 ft 238 kts 264°
2026-05-07 01:02 -37.44243 144.99925 6762 ft 232 kts 263°
2026-05-07 01:02 -37.44212 144.97874 6490 ft 230 kts 263°
2026-05-07 01:02 -37.44183 144.95892 6218 ft 229 kts 263°
2026-05-07 01:02 -37.44221 144.93904 5931 ft 224 kts 255°
2026-05-07 01:03 -37.44495 144.91943 5320 ft 233 kts 253°
2026-05-07 01:03 -37.44788 144.89931 4659 ft 232 kts 253°
2026-05-07 01:03 -37.45071 144.87955 4093 ft 225 kts 254°
2026-05-07 01:03 -37.45327 144.86107 3877 ft 203 kts 253°
2026-05-07 01:04 -37.45556 144.84424 3748 ft 189 kts 252°
2026-05-07 01:04 -37.45978 144.82925 3659 ft 178 kts 235°
2026-05-07 01:04 -37.46730 144.81739 3596 ft 170 kts 220°
2026-05-07 01:04 -37.47662 144.80964 3477 ft 153 kts 206°
2026-05-07 01:05 -37.48657 144.80591 3256 ft 145 kts 192°
2026-05-07 01:05 -37.49639 144.80576 3127 ft 139 kts 181°
2026-05-07 01:05 -37.50597 144.80752 3047 ft 136 kts 179°
2026-05-07 01:05 -37.51524 144.80925 3039 ft 133 kts 180°
2026-05-07 01:06 -37.52441 144.81094 2982 ft 134 kts 180°
2026-05-07 01:06 -37.53363 144.81265 2849 ft 134 kts 180°
2026-05-07 01:06 -37.54291 144.81437 2683 ft 135 kts 180°
2026-05-07 01:06 -37.55223 144.81611 2504 ft 135 kts 179°
2026-05-07 01:07 -37.56146 144.81782 2328 ft 134 kts 181°
2026-05-07 01:07 -37.57069 144.81954 2149 ft 134 kts 180°
2026-05-07 01:07 -37.57981 144.82124 1950 ft 131 kts 180°
2026-05-07 01:07 -37.58880 144.82292 1788 ft 131 kts 181°
2026-05-07 01:08 -37.59794 144.82462 1586 ft 132 kts 178°
2026-05-07 01:08 -37.60717 144.82632 1392 ft 139 kts 179°
2026-05-07 01:08 -37.61645 144.82805 1184 ft 135 kts 176°
2026-05-07 01:08 -37.62567 144.82983 1013 ft 134 kts 179°
2026-05-07 01:09 -37.63488 144.83147 838 ft 131 kts 181°
2026-05-07 01:09 -37.64399 144.83326 663 ft 131 kts 176°
2026-05-07 01:09 -37.65297 144.83487 504 ft 131 kts 175°
2026-05-07 01:09 -37.66151 144.83644 409 ft 108 kts 170°
2026-05-07 01:10 -37.66736 144.83755 396 ft 48 kts 171°
2026-05-07 01:10 -37.67002 144.83836 386 ft 37 kts 149°
2026-05-07 01:10 -37.67149 144.83972 381 ft 16 kts 141°
2026-05-07 01:10 -37.67164 144.83988 380 ft 0 kts 140°
2026-05-07 01:11 -37.67191 144.84017 379 ft 11 kts 136°
2026-05-07 01:11 -37.67222 144.84114 379 ft 13 kts 95°
2026-05-07 01:11 -37.67215 144.84225 381 ft 11 kts 84°
2026-05-07 01:12 -37.67209 144.84299 382 ft 8 kts 83°
2026-05-07 01:12 -37.67202 144.84372 383 ft 10 kts 83°
2026-05-07 01:12 -37.67201 144.84440 384 ft 7 kts 97°
2026-05-07 01:12 -37.67212 144.84506 385 ft 8 kts 97°
2026-05-07 01:13 -37.67207 144.84564 386 ft 4 kts 83°
2026-05-07 01:13 -37.67197 144.84589 386 ft 3 kts 37°
2026-05-07 01:13 -37.67180 144.84592 387 ft 3 kts
2026-05-07 01:13 -37.67158 144.84590 387 ft 2 kts 354°
2026-05-07 01:14 -37.67148 144.84588 388 ft 1 kts 352°
2026-05-07 01:14 -37.67136 144.84586 388 ft 2 kts 352°
2026-05-07 01:14 -37.67128 144.84585 388 ft 0 kts 352°